Avon, MN (56310)

6:40 PM CDT on June 28, 2017 (GMT -0500)
Stratford Addition | | Change Station

Elev 1125 ft 45.60 °N, 94.47 °W | Updated 21 seconds ago

Overcast
Overcast
73.0 °F
Feels Like 74 °F
N
14.0
Wind Variable Wind from WSW

Today
High -- | Low -- °F
--% Chance of Precip.
Yesterday
High -- | Low -- °F
Precip. -- in
Pressure 29.52 in
Visibility 10.0 miles
Clouds Scattered Clouds 3300 ft
Overcast 5000 ft
Heat Index 74 °F
Dew Point 64 °F
Humidity 75%
Rainfall 0.66 in
Snow Depth Not available.
5:31 AM 9:11 PM
Waxing Crescent, 29% visible
METAR KSTC 282253Z 27015G22KT 10SM SCT033 OVC050 24/18 A2951 RMK AO2 SLP997 T02390183
Pressure 29.52 in
Visibility 10.0 miles
Clouds Scattered Clouds 3300 ft
Overcast 5000 ft
Heat Index 74 °F
Dew Point 64 °F
Humidity 75%
Rainfall 0.66 in
Snow Depth Not available.
5:31 AM 9:11 PM
Waxing Crescent, 29% visible
METAR KSTC 282253Z 27015G22KT 10SM SCT033 OVC050 24/18 A2951 RMK AO2 SLP997 T02390183

Get Severe Weather Alerts

Thanks for signing up!

Be on the lookout for a verification email in your inbox.

You'll start receiving the daily forecast at 6 AM.

×

10-Day Weather Forecast

Almanac

Astronomy

Jun. 28, 2017 Rise Set
Actual Time
Civil Twilight
Nautical Twilight
Astronomical Twilight
Moon
Length of Visible Light
Length of Day
Tomorrow will be .
, % of the Moon is Illuminated

Today's Extremes

State Highs State Lows

Community

WunderPhotos

Category 6

Welcome to Category 6. This is the collective home for Weather Underground's featured writeups by Dr. Jeff Masters (right), Bob Henson (left), Chris Burt, and other regular contributors.

Nearby

Air Quality

  Air Quality AQ Index Pollutant
Not available.

Snow Depth

Station Depth Elevation

Earthquake Activity

City Distance Mag. Time & Date
Minimum magnitude displayed is 2.5.

Coastal Water Temperatures

Place Temperature

Stations

Nearby Weather Stations

Station Location Temp. Windchill Dew Point Humidity Wind Precip. Elev Updated Type
                   

Watches & Warnings

There are currently no watches in effect.